Time,TemperatureF,DewpointF,PressureIn,WindDirection,WindDirectionDegrees,WindSpeedMPH,WindSpeedGustMPH,Humidity,HourlyPrecipIn,Conditions,Clouds,dailyrainin,SoftwareType,DateUTC
2013-11-25 01:00:00,23.0,-99.9,-100.00,East,97,3.0,8.0,-999,0.00,,,-99.99,,2013-11-25 08:00:00,
2013-11-25 01:42:00,23.0,-99.9,-100.00,East,97,3.0,8.0,-999,0.00,,,-99.99,,2013-11-25 08:42:00,
2013-11-25 01:52:00,23.0,-99.9,-100.00,East,97,3.0,8.0,-999,0.00,,,-99.99,,2013-11-25 08:52:00,
2013-11-25 02:00:00,22.0,-99.9,-100.00,East,79,3.0,7.0,-999,0.00,,,-99.99,,2013-11-25 09:00:00,
2013-11-25 02:44:00,22.0,-99.9,-100.00,East,79,3.0,7.0,-999,0.00,,,-99.99,,2013-11-25 09:44:00,
2013-11-25 02:53:00,22.0,-99.9,-100.00,East,79,3.0,7.0,-999,0.00,,,-99.99,,2013-11-25 09:53:00,
2013-11-25 03:00:00,21.0,-99.9,-100.00,East,86,3.0,10.0,-999,0.00,,,-99.99,,2013-11-25 10:00:00,
2013-11-25 03:43:00,21.0,-99.9,-100.00,East,86,3.0,10.0,-999,0.00,,,-99.99,,2013-11-25 10:43:00,
2013-11-25 03:53:00,21.0,-99.9,-100.00,East,86,3.0,10.0,-999,0.00,,,-99.99,,2013-11-25 10:53:00,
2013-11-25 04:00:00,29.0,-99.9,-100.00,East,101,3.0,14.0,-999,0.00,,,-99.99,,2013-11-25 11:00:00,
2013-11-25 04:43:00,29.0,-99.9,-100.00,East,101,3.0,14.0,-999,0.00,,,-99.99,,2013-11-25 11:43:00,
2013-11-25 04:52:00,29.0,-99.9,-100.00,East,101,3.0,14.0,-999,0.00,,,-99.99,,2013-11-25 11:52:00,
2013-11-25 05:00:00,25.0,-99.9,-100.00,NNE,28,3.0,12.0,-999,0.00,,,-99.99,,2013-11-25 12:00:00,
2013-11-25 05:42:00,25.0,-99.9,-100.00,NNE,28,3.0,12.0,-999,0.00,,,-99.99,,2013-11-25 12:42:00,
2013-11-25 05:52:00,25.0,-99.9,-100.00,NNE,28,3.0,12.0,-999,0.00,,,-99.99,,2013-11-25 12:52:00,
2013-11-25 06:00:00,22.0,-99.9,-100.00,ESE,103,2.0,5.0,-999,0.00,,,-99.99,,2013-11-25 13:00:00,
2013-11-25 06:42:00,22.0,-99.9,-100.00,ESE,103,2.0,5.0,-999,0.00,,,-99.99,,2013-11-25 13:42:00,
2013-11-25 06:52:00,22.0,-99.9,-100.00,ESE,103,2.0,5.0,-999,0.00,,,-99.99,,2013-11-25 13:52:00,
2013-11-25 07:00:00,23.0,-99.9,-100.00,ESE,111,3.0,13.0,-999,0.00,,,-99.99,,2013-11-25 14:00:00,
2013-11-25 07:42:00,23.0,-99.9,-100.00,ESE,111,3.0,13.0,-999,0.00,,,-99.99,,2013-11-25 14:42:00,
2013-11-25 07:52:00,23.0,-99.9,-100.00,ESE,111,3.0,13.0,-999,0.00,,,-99.99,,2013-11-25 14:52:00,
2013-11-25 08:00:00,23.0,-99.9,-100.00,East,97,3.0,7.0,-999,0.00,,,-99.99,,2013-11-25 15:00:00,
2013-11-25 08:45:00,23.0,-99.9,-100.00,East,97,3.0,7.0,-999,0.00,,,-99.99,,2013-11-25 15:45:00,
2013-11-25 08:54:00,23.0,-99.9,-100.00,East,97,3.0,7.0,-999,0.00,,,-99.99,,2013-11-25 15:54:00,
2013-11-25 09:00:00,30.0,-99.9,-100.00,SE,146,5.0,15.0,-999,0.00,,,-99.99,,2013-11-25 16:00:00,
2013-11-25 09:43:00,30.0,-99.9,-100.00,SE,146,5.0,15.0,-999,0.00,,,-99.99,,2013-11-25 16:43:00,
2013-11-25 09:52:00,30.0,-99.9,-100.00,SE,146,5.0,15.0,-999,0.00,,,-99.99,,2013-11-25 16:52:00,
2013-11-25 10:00:00,34.0,-99.9,-100.00,SSE,166,8.0,18.0,-999,0.00,,,-99.99,,2013-11-25 17:00:00,
2013-11-25 10:43:00,34.0,-99.9,-100.00,SSE,166,8.0,18.0,-999,0.00,,,-99.99,,2013-11-25 17:43:00,
2013-11-25 10:52:00,34.0,-99.9,-100.00,SSE,166,8.0,18.0,-999,0.00,,,-99.99,,2013-11-25 17:52:00,
2013-11-25 11:00:00,35.0,-99.9,-100.00,South,177,6.0,13.0,-999,0.00,,,-99.99,,2013-11-25 18:00:00,
2013-11-25 11:42:00,35.0,-99.9,-100.00,South,177,6.0,13.0,-999,0.00,,,-99.99,,2013-11-25 18:42:00,
2013-11-25 11:52:00,35.0,-99.9,-100.00,South,177,6.0,13.0,-999,0.00,,,-99.99,,2013-11-25 18:52:00,
2013-11-25 12:00:00,39.0,-99.9,-100.00,SSE,168,5.0,12.0,-999,0.00,,,-99.99,,2013-11-25 19:00:00,
2013-11-25 12:42:00,39.0,-99.9,-100.00,SSE,168,5.0,12.0,-999,0.00,,,-99.99,,2013-11-25 19:42:00,
2013-11-25 12:52:00,39.0,-99.9,-100.00,SSE,168,5.0,12.0,-999,0.00,,,-99.99,,2013-11-25 19:52:00,
2013-11-25 13:00:00,41.0,-99.9,-100.00,SW,214,6.0,17.0,-999,0.00,,,-99.99,,2013-11-25 20:00:00,
2013-11-25 13:42:00,41.0,-99.9,-100.00,SW,214,6.0,17.0,-999,0.00,,,-99.99,,2013-11-25 20:42:00,
2013-11-25 13:53:00,41.0,-99.9,-100.00,SW,214,6.0,17.0,-999,0.00,,,-99.99,,2013-11-25 20:53:00,
2013-11-25 14:00:00,40.0,-99.9,-100.00,South,189,7.0,17.0,-999,0.00,,,-99.99,,2013-11-25 21:00:00,
2013-11-25 14:44:00,40.0,-99.9,-100.00,South,189,7.0,17.0,-999,0.00,,,-99.99,,2013-11-25 21:44:00,
2013-11-25 14:54:00,40.0,-99.9,-100.00,South,189,7.0,17.0,-999,0.00,,,-99.99,,2013-11-25 21:54:00,
2013-11-25 15:00:00,32.0,-99.9,-100.00,WSW,243,5.0,16.0,-999,0.00,,,-99.99,,2013-11-25 22:00:00,
2013-11-25 15:43:00,32.0,-99.9,-100.00,WSW,243,5.0,16.0,-999,0.00,,,-99.99,,2013-11-25 22:43:00,
2013-11-25 15:53:00,32.0,-99.9,-100.00,WSW,243,5.0,16.0,-999,0.00,,,-99.99,,2013-11-25 22:53:00,
2013-11-25 16:00:00,33.0,-99.9,-100.00,SW,215,7.0,17.0,-999,0.00,,,-99.99,,2013-11-25 23:00:00,
2013-11-25 16:42:00,33.0,-99.9,-100.00,SW,215,7.0,17.0,-999,0.00,,,-99.99,,2013-11-25 23:42:00,
2013-11-25 16:52:00,33.0,-99.9,-100.00,SW,215,7.0,17.0,-999,0.00,,,-99.99,,2013-11-25 23:52:00,
2013-11-25 17:00:00,34.0,-99.9,-100.00,SSW,195,5.0,11.0,-999,0.00,,,-99.99,,2013-11-26 00:00:00,
2013-11-25 17:42:00,34.0,-99.9,-100.00,SSW,195,5.0,11.0,-999,0.00,,,-99.99,,2013-11-26 00:42:00,
2013-11-25 17:52:00,34.0,-99.9,-100.00,SSW,195,5.0,11.0,-999,0.00,,,-99.99,,2013-11-26 00:52:00,
2013-11-25 18:00:00,31.0,-99.9,-100.00,South,189,4.0,10.0,-999,0.00,,,-99.99,,2013-11-26 01:00:00,
2013-11-25 18:42:00,31.0,-99.9,-100.00,South,189,4.0,10.0,-999,0.00,,,-99.99,,2013-11-26 01:42:00,
2013-11-25 18:52:00,31.0,-99.9,-100.00,South,189,4.0,10.0,-999,0.00,,,-99.99,,2013-11-26 01:52:00,
2013-11-25 19:00:00,30.0,-99.9,-100.00,ESE,122,3.0,9.0,-999,0.00,,,-99.99,,2013-11-26 02:00:00,
2013-11-25 19:42:00,30.0,-99.9,-100.00,ESE,122,3.0,9.0,-999,0.00,,,-99.99,,2013-11-26 02:42:00,
2013-11-25 19:52:00,30.0,-99.9,-100.00,ESE,122,3.0,9.0,-999,0.00,,,-99.99,,2013-11-26 02:52:00,
2013-11-25 20:00:00,27.0,-99.9,-100.00,East,95,3.0,6.0,-999,0.00,,,-99.99,,2013-11-26 03:00:00,
2013-11-25 20:44:00,27.0,-99.9,-100.00,East,95,3.0,6.0,-999,0.00,,,-99.99,,2013-11-26 03:44:00,
2013-11-25 20:54:00,27.0,-99.9,-100.00,East,95,3.0,6.0,-999,0.00,,,-99.99,,2013-11-26 03:54:00,
2013-11-25 21:00:00,27.0,-99.9,-100.00,ESE,102,3.0,8.0,-999,0.00,,,-99.99,,2013-11-26 04:00:00,
2013-11-25 21:44:00,27.0,-99.9,-100.00,ESE,102,3.0,8.0,-999,0.00,,,-99.99,,2013-11-26 04:44:00,
2013-11-25 21:53:00,27.0,-99.9,-100.00,ESE,102,3.0,8.0,-999,0.00,,,-99.99,,2013-11-26 04:53:00,
2013-11-25 22:00:00,26.0,-99.9,-100.00,East,91,4.0,10.0,-999,0.00,,,-99.99,,2013-11-26 05:00:00,
2013-11-25 22:43:00,26.0,-99.9,-100.00,East,91,4.0,10.0,-999,0.00,,,-99.99,,2013-11-26 05:43:00,
2013-11-25 22:53:00,26.0,-99.9,-100.00,East,91,4.0,10.0,-999,0.00,,,-99.99,,2013-11-26 05:53:00,
2013-11-25 23:00:00,29.0,-99.9,-100.00,ESE,103,4.0,10.0,-999,0.00,,,-99.99,,2013-11-26 06:00:00,
2013-11-25 23:42:00,29.0,-99.9,-100.00,ESE,103,4.0,10.0,-999,0.00,,,-99.99,,2013-11-26 06:42:00,
2013-11-25 23:52:00,29.0,-99.9,-100.00,ESE,103,4.0,10.0,-999,0.00,,,-99.99,,2013-11-26 06:52:00,